Time;durP1;ratioP1;P1;durP2;ratioP2;P2;SDS_P1;SDS_P2;PMS_P1;PMS_P2;Temp;Humidity;BMP_temperature;BMP_pressure;BME280_temperature;BME280_humidity;BME280_pressure;Samples;Min_cycle;Max_cycle;Signal;HPM_P1;HPM_P2
2021/01/15 00:00:44;;;;;;;1999.90;999.90;;;0.70;99.90;;;;;;5090946;28;20631;-62
2021/01/15 00:03:09;;;;;;;1999.90;999.90;;;0.70;99.90;;;;;;5090848;28;20172;-62
2021/01/15 00:05:38;;;;;;;1999.90;999.90;;;0.60;99.90;;;;;;5090800;28;20318;-62
2021/01/15 00:08:04;;;;;;;1999.90;999.90;;;0.60;99.90;;;;;;5090888;28;20170;-62
2021/01/15 00:10:30;;;;;;;1999.90;999.90;;;0.60;99.90;;;;;;5090660;28;20257;-60
2021/01/15 00:12:56;;;;;;;1999.90;999.90;;;0.60;99.90;;;;;;5090923;28;20246;-62
2021/01/15 00:15:21;;;;;;;1999.90;999.90;;;0.50;99.90;;;;;;5090741;28;20655;-60
2021/01/15 00:17:47;;;;;;;1999.90;999.90;;;0.50;99.90;;;;;;5090713;28;20170;-63
2021/01/15 00:20:12;;;;;;;1999.90;999.90;;;0.50;99.90;;;;;;5090549;28;20170;-61
2021/01/15 00:22:42;;;;;;;1999.90;999.90;;;0.40;99.90;;;;;;5090788;28;20654;-60
2021/01/15 00:25:12;;;;;;;1999.90;999.90;;;0.40;99.90;;;;;;5090595;28;20255;-59
2021/01/15 00:27:38;;;;;;;1999.90;999.90;;;0.40;99.90;;;;;;5093642;28;20185;-62
2021/01/15 00:30:06;;;;;;;1999.90;999.90;;;0.50;99.90;;;;;;5094348;28;20245;-61
2021/01/15 00:32:32;;;;;;;1999.90;999.90;;;0.40;99.90;;;;;;5094608;28;20569;-61
2021/01/15 00:34:57;;;;;;;1999.90;999.90;;;0.40;99.90;;;;;;5094479;28;20193;-63
2021/01/15 00:37:23;;;;;;;1999.90;999.90;;;0.40;99.90;;;;;;5094625;28;20166;-62
2021/01/15 00:39:49;;;;;;;1999.90;999.90;;;0.30;99.90;;;;;;5094244;28;20173;-60
2021/01/15 00:42:14;;;;;;;1999.90;999.90;;;0.30;99.90;;;;;;5094309;28;20181;-62
2021/01/15 00:44:45;;;;;;;1999.90;999.90;;;0.20;99.90;;;;;;5094161;28;20216;-61
2021/01/15 00:47:11;;;;;;;1999.90;999.90;;;0.30;99.90;;;;;;5094349;28;20304;-63
2021/01/15 00:49:37;;;;;;;1999.90;999.90;;;0.20;99.90;;;;;;5094112;28;20247;-62
2021/01/15 00:52:02;;;;;;;1999.90;999.90;;;0.10;99.90;;;;;;5094373;28;20166;-59
2021/01/15 00:54:28;;;;;;;1999.90;999.90;;;0.10;99.90;;;;;;5094098;28;20200;-61
2021/01/15 00:57:03;;;;;;;1999.90;999.90;;;0.10;99.90;;;;;;5094159;28;20170;-63
2021/01/15 00:59:29;;;;;;;1999.90;999.90;;;0.10;99.90;;;;;;5094035;28;20170;-59
2021/01/15 01:01:54;;;;;;;1999.90;999.90;;;0.10;99.90;;;;;;5094053;28;20241;-63
2021/01/15 01:04:20;;;;;;;1999.90;999.90;;;0.10;99.90;;;;;;5094013;28;20194;-63
2021/01/15 01:06:46;;;;;;;1999.90;999.90;;;0.10;99.90;;;;;;5094080;28;20665;-63
2021/01/15 01:09:11;;;;;;;1999.90;999.90;;;0.10;99.90;;;;;;5093606;28;20249;-63
2021/01/15 01:11:37;;;;;;;1999.90;999.90;;;0.10;99.90;;;;;;5093875;28;20396;-62
2021/01/15 01:14:04;;;;;;;1999.90;999.90;;;0.00;99.90;;;;;;5093798;28;20193;-63
2021/01/15 01:16:30;;;;;;;1999.90;999.90;;;0.00;99.90;;;;;;5093764;28;20578;-62
2021/01/15 01:18:56;;;;;;;1999.90;999.90;;;0.10;99.90;;;;;;5093438;28;20215;-62
2021/01/15 01:21:24;;;;;;;1999.90;999.90;;;0.00;99.90;;;;;;5093662;28;20223;-62
2021/01/15 01:23:50;;;;;;;1999.90;999.90;;;0.00;99.90;;;;;;5093538;28;20229;-62
2021/01/15 01:26:17;;;;;;;1999.90;999.90;;;0.00;99.90;;;;;;5093554;28;20289;-62
2021/01/15 01:28:43;;;;;;;1999.90;999.90;;;0.00;99.90;;;;;;5093489;28;20189;-62
2021/01/15 01:31:13;;;;;;;1999.90;999.90;;;-0.10;99.90;;;;;;5093602;28;20162;-62
2021/01/15 01:33:39;;;;;;;1999.90;999.90;;;0.00;99.90;;;;;;5093358;28;20913;-59
2021/01/15 01:36:06;;;;;;;1999.90;999.90;;;0.00;99.90;;;;;;5093382;28;20170;-62
2021/01/15 01:38:32;;;;;;;1999.90;999.90;;;0.00;99.90;;;;;;5092665;28;20749;-61
2021/01/15 01:40:58;;;;;;;1999.90;999.90;;;0.00;99.90;;;;;;5093369;28;20265;-62
2021/01/15 01:43:24;;;;;;;1999.90;999.90;;;0.00;99.90;;;;;;5093081;28;20201;-60
2021/01/15 01:45:50;;;;;;;1999.90;999.90;;;0.00;99.90;;;;;;5093114;28;20190;-60
2021/01/15 01:48:16;;;;;;;1999.90;999.90;;;0.00;99.90;;;;;;5092958;28;20173;-62
2021/01/15 01:50:46;;;;;;;1999.90;999.90;;;0.10;99.90;;;;;;5093431;28;20166;-59
2021/01/15 01:53:15;;;;;;;1999.90;999.90;;;0.20;99.90;;;;;;5093307;28;20201;-60
2021/01/15 01:55:43;;;;;;;1999.90;999.90;;;0.20;99.90;;;;;;5093111;28;20261;-62
2021/01/15 01:58:11;;;;;;;1999.90;999.90;;;0.10;99.90;;;;;;5092917;28;20227;-60
2021/01/15 02:00:39;;;;;;;1999.90;999.90;;;0.10;99.90;;;;;;5093213;28;20180;-58
2021/01/15 02:03:06;;;;;;;1999.90;999.90;;;0.10;99.90;;;;;;5092917;28;20268;-62
2021/01/15 02:05:32;;;;;;;1999.90;999.90;;;0.10;99.90;;;;;;5092786;28;20225;-62
2021/01/15 02:07:58;;;;;;;1999.90;999.90;;;0.20;99.90;;;;;;5092775;28;20678;-60
2021/01/15 02:10:32;;;;;;;1999.90;999.90;;;0.30;99.90;;;;;;5092518;28;20162;-63
2021/01/15 02:13:38;;;;;;;1999.90;999.90;;;0.20;99.90;;;;;;5092732;28;20172;-57
2021/01/15 02:16:12;;;;;;;1999.90;999.90;;;0.30;99.90;;;;;;5092627;28;20174;-58
2021/01/15 02:18:42;;;;;;;1999.90;999.90;;;0.30;99.90;;;;;;5092488;28;20185;-62
2021/01/15 02:21:42;;;;;;;1999.90;999.90;;;0.40;99.90;;;;;;5092814;28;20636;-60
2021/01/15 02:24:23;;;;;;;1999.90;999.90;;;0.40;99.90;;;;;;5092368;28;20201;-62
2021/01/15 02:27:18;;;;;;;1999.90;999.90;;;0.40;99.90;;;;;;5092491;28;20201;-59
2021/01/15 02:30:20;;;;;;;1999.90;999.90;;;0.40;99.90;;;;;;5070393;28;20546;-62
2021/01/15 02:33:02;;;;;;;1999.90;999.90;;;0.40;99.90;;;;;;5092248;28;20173;-61
2021/01/15 02:35:36;;;;;;;1999.90;999.90;;;0.40;99.90;;;;;;5092250;28;20233;-63
2021/01/15 02:38:10;;;;;;;1999.90;999.90;;;0.50;99.90;;;;;;5092192;28;20178;-64
2021/01/15 02:40:42;;;;;;;1999.90;999.90;;;0.50;99.90;;;;;;5092220;28;20162;-63
2021/01/15 02:43:08;;;;;;;1999.90;999.90;;;0.50;99.90;;;;;;5092176;28;20167;-62
2021/01/15 02:45:34;;;;;;;1999.90;999.90;;;0.70;99.90;;;;;;5091879;28;20214;-62
2021/01/15 02:48:04;;;;;;;1999.90;999.90;;;0.80;99.90;;;;;;5092058;28;20210;-62
2021/01/15 02:50:29;;;;;;;1999.90;999.90;;;0.80;99.90;;;;;;5091174;28;20546;-58
2021/01/15 02:52:59;;;;;;;1999.90;999.90;;;0.90;99.90;;;;;;5092012;28;20174;-63
2021/01/15 02:55:25;;;;;;;1999.90;999.90;;;1.00;99.90;;;;;;5091677;28;20477;-64
2021/01/15 02:57:51;;;;;;;1999.90;999.90;;;1.00;99.90;;;;;;5091871;28;20170;-62
2021/01/15 03:00:20;;;;;;;1999.90;999.90;;;1.00;99.90;;;;;;5091657;28;20765;-64
2021/01/15 03:03:25;;;;;;;1999.90;999.90;;;1.20;99.90;;;;;;5091914;28;20602;-62
2021/01/15 03:06:20;;;;;;;1999.90;999.90;;;1.10;99.90;;;;;;5074782;28;20202;-64
2021/01/15 03:08:46;;;;;;;1999.90;999.90;;;1.10;99.90;;;;;;5091586;28;20556;-62
2021/01/15 03:11:13;;;;;;;1999.90;999.90;;;1.20;99.90;;;;;;5091809;28;20171;-62
2021/01/15 03:13:40;;;;;;;1999.90;999.90;;;1.20;99.90;;;;;;5091536;28;20186;-62
2021/01/15 03:16:07;;;;;;;1999.90;999.90;;;1.30;99.90;;;;;;5091590;28;20174;-62
2021/01/15 03:18:33;;;;;;;1999.90;999.90;;;1.40;99.90;;;;;;5091163;28;20253;-62
2021/01/15 03:21:01;;;;;;;1999.90;999.90;;;1.50;99.90;;;;;;5091480;28;20586;-62
2021/01/15 03:23:27;;;;;;;1999.90;999.90;;;1.50;99.90;;;;;;5091440;28;20515;-63
2021/01/15 03:25:54;;;;;;;1999.90;999.90;;;1.50;99.90;;;;;;5091423;28;20209;-62
2021/01/15 03:28:19;;;;;;;1999.90;999.90;;;1.50;99.90;;;;;;5091074;28;20162;-61
2021/01/15 03:30:45;;;;;;;1999.90;999.90;;;1.50;99.90;;;;;;5091250;28;20179;-62
2021/01/15 03:33:10;;;;;;;1999.90;999.90;;;1.50;99.90;;;;;;5091113;28;20204;-63
2021/01/15 03:35:36;;;;;;;1999.90;999.90;;;1.50;99.90;;;;;;5091241;28;20166;-62
2021/01/15 03:38:07;;;;;;;1999.90;999.90;;;1.60;99.90;;;;;;5091169;28;20225;-63
2021/01/15 03:40:35;;;;;;;1999.90;999.90;;;1.60;99.90;;;;;;5091152;28;20170;-63
2021/01/15 03:43:09;;;;;;;1999.90;999.90;;;1.60;99.90;;;;;;5091039;28;20311;-62
2021/01/15 03:45:34;;;;;;;1999.90;999.90;;;1.60;99.90;;;;;;5090898;28;20258;-62
2021/01/15 03:48:00;;;;;;;1999.90;999.90;;;1.60;99.90;;;;;;5091078;28;20174;-62
2021/01/15 03:50:25;;;;;;;1999.90;999.90;;;1.70;99.90;;;;;;5090816;28;20188;-62
2021/01/15 03:52:51;;;;;;;1999.90;999.90;;;1.60;99.90;;;;;;5091056;28;20195;-60
2021/01/15 03:55:17;;;;;;;1999.90;999.90;;;1.60;99.90;;;;;;5090918;28;20214;-62
2021/01/15 03:57:42;;;;;;;1999.90;999.90;;;1.50;99.90;;;;;;5090892;28;20654;-62
2021/01/15 04:00:09;;;;;;;1999.90;999.90;;;1.60;99.90;;;;;;5091326;28;20158;-62
2021/01/15 04:02:35;;;;;;;1999.90;999.90;;;1.50;99.90;;;;;;5095231;28;20404;-62
2021/01/15 04:05:00;;;;;;;1999.90;999.90;;;1.60;99.90;;;;;;5095167;28;20204;-62
2021/01/15 04:07:26;;;;;;;1999.90;999.90;;;1.60;99.90;;;;;;5095070;28;20253;-62
2021/01/15 04:09:51;;;;;;;1999.90;999.90;;;1.60;99.90;;;;;;5094854;28;20159;-63
2021/01/15 04:12:17;;;;;;;1999.90;999.90;;;1.60;99.90;;;;;;5095032;28;20724;-62
2021/01/15 04:14:43;;;;;;;1999.90;999.90;;;1.60;99.90;;;;;;5094850;28;20655;-61
2021/01/15 04:17:09;;;;;;;1999.90;999.90;;;1.60;99.90;;;;;;5094944;28;20166;-62
2021/01/15 04:19:36;;;;;;;1999.90;999.90;;;1.60;99.90;;;;;;5076795;28;20920;-62
2021/01/15 04:22:01;;;;;;;1999.90;999.90;;;1.70;99.90;;;;;;5095171;28;20205;-61
2021/01/15 04:24:27;;;;;;;1999.90;999.90;;;1.70;99.90;;;;;;5094956;28;20217;-59
2021/01/15 04:26:57;;;;;;;1999.90;999.90;;;1.70;99.90;;;;;;5094704;28;21126;-61
2021/01/15 04:29:24;;;;;;;1999.90;999.90;;;1.70;99.90;;;;;;5094613;28;20177;-60
2021/01/15 04:31:50;;;;;;;1999.90;999.90;;;1.60;99.90;;;;;;5095205;28;20186;-62
2021/01/15 04:34:16;;;;;;;1999.90;999.90;;;1.50;99.90;;;;;;5094836;28;20179;-63
2021/01/15 04:36:42;;;;;;;1999.90;999.90;;;1.60;99.90;;;;;;5094659;28;20178;-60
2021/01/15 04:39:08;;;;;;;1999.90;999.90;;;1.70;99.90;;;;;;5094372;28;20181;-61
2021/01/15 04:41:34;;;;;;;1999.90;999.90;;;1.70;99.90;;;;;;5094530;28;20411;-59
2021/01/15 04:44:00;;;;;;;1999.90;999.90;;;1.60;99.90;;;;;;5132968;22;20230;-65
2021/01/15 04:46:27;;;;;;;1999.90;999.90;;;1.60;99.90;;;;;;5094314;28;20218;-66
2021/01/15 04:48:55;;;;;;;1999.90;999.90;;;1.60;99.90;;;;;;5094117;28;20251;-65
2021/01/15 04:51:27;;;;;;;1999.90;999.90;;;1.60;99.90;;;;;;5094399;28;20635;-65
2021/01/15 04:54:01;;;;;;;1999.90;999.90;;;1.70;99.90;;;;;;5094285;28;20196;-65
2021/01/15 04:56:34;;;;;;;1999.90;999.90;;;1.60;99.90;;;;;;5094217;28;20638;-65
2021/01/15 04:59:04;;;;;;;1999.90;999.90;;;1.60;99.90;;;;;;5094257;28;20178;-65
2021/01/15 05:01:40;;;;;;;1999.90;999.90;;;1.60;99.90;;;;;;5094168;28;20190;-65
2021/01/15 05:04:10;;;;;;;1999.90;999.90;;;1.60;99.90;;;;;;5094016;28;20278;-66
2021/01/15 05:06:50;;;;;;;1999.90;999.90;;;1.60;99.90;;;;;;5093872;28;20331;-65
2021/01/15 05:09:18;;;;;;;1999.90;999.90;;;1.60;99.90;;;;;;5093756;28;20793;-64
2021/01/15 05:11:44;;;;;;;1999.90;999.90;;;1.70;99.90;;;;;;5093422;28;20178;-65
2021/01/15 05:14:20;;;;;;;1999.90;999.90;;;1.70;99.90;;;;;;5094303;28;20218;-66
2021/01/15 05:16:49;;;;;;;1999.90;999.90;;;1.70;99.90;;;;;;5094382;28;20166;-66
2021/01/15 05:19:16;;;;;;;1999.90;999.90;;;1.70;99.90;;;;;;5093484;28;20174;-66
2021/01/15 05:21:42;;;;;;;1999.90;999.90;;;1.70;99.90;;;;;;5093708;28;20174;-65
2021/01/15 05:24:10;;;;;;;1999.90;999.90;;;1.70;99.90;;;;;;5093604;28;20200;-65
2021/01/15 05:26:36;;;;;;;1999.90;999.90;;;1.70;99.90;;;;;;5093570;28;20229;-65
2021/01/15 05:29:04;;;;;;;1999.90;999.90;;;1.80;99.90;;;;;;5093359;28;20588;-65
2021/01/15 05:31:53;;;;;;;1999.90;999.90;;;1.80;99.90;;;;;;5093539;28;20504;-65
2021/01/15 05:34:24;;;;;;;1999.90;999.90;;;1.80;99.90;;;;;;5093563;28;20198;-66
2021/01/15 05:36:50;;;;;;;1999.90;999.90;;;1.80;99.90;;;;;;5093468;28;20168;-65
2021/01/15 05:39:20;;;;;;;1999.90;999.90;;;1.90;99.90;;;;;;5093195;28;20266;-66
2021/01/15 05:41:48;;;;;;;1999.90;999.90;;;1.80;99.90;;;;;;5093310;28;20170;-65
2021/01/15 05:44:33;;;;;;;1999.90;999.90;;;1.80;99.90;;;;;;5093043;28;20241;-66
2021/01/15 05:47:00;;;;;;;1999.90;999.90;;;1.80;99.90;;;;;;5093289;28;20194;-66
2021/01/15 05:49:27;;;;;;;1999.90;999.90;;;1.90;99.90;;;;;;5093152;28;20308;-66
2021/01/15 05:51:53;;;;;;;1999.90;999.90;;;1.80;99.90;;;;;;5093272;28;20165;-66
2021/01/15 05:54:30;;;;;;;1999.90;999.90;;;1.90;99.90;;;;;;5093050;28;20199;-66
2021/01/15 05:56:56;;;;;;;1999.90;999.90;;;1.80;99.90;;;;;;5093307;28;20825;-66
2021/01/15 05:59:22;;;;;;;1999.90;999.90;;;1.80;99.90;;;;;;5092771;28;20200;-66
2021/01/15 06:01:54;;;;;;;1999.90;999.90;;;1.90;99.90;;;;;;5093123;28;20163;-65
2021/01/15 06:04:34;;;;;;;1999.90;999.90;;;1.80;99.90;;;;;;5092999;28;20273;-65
2021/01/15 06:07:06;;;;;;;1999.90;999.90;;;1.80;99.90;;;;;;5092805;28;20253;-67
2021/01/15 06:09:32;;;;;;;1999.90;999.90;;;1.80;99.90;;;;;;5092556;28;20338;-65
2021/01/15 06:12:06;;;;;;;1999.90;999.90;;;1.90;99.90;;;;;;5092772;28;20229;-65
2021/01/15 06:14:32;;;;;;;1999.90;999.90;;;1.90;99.90;;;;;;5092637;28;20772;-64
2021/01/15 06:17:04;;;;;;;1999.90;999.90;;;1.90;99.90;;;;;;5092736;28;20227;-65
2021/01/15 06:19:43;;;;;;;1999.90;999.90;;;1.90;99.90;;;;;;5092446;28;20404;-67
2021/01/15 06:22:29;;;;;;;1999.90;999.90;;;1.90;99.90;;;;;;5093015;28;20174;-65
2021/01/15 06:25:03;;;;;;;1999.90;999.90;;;1.90;99.90;;;;;;5092691;28;20189;-65
2021/01/15 06:27:36;;;;;;;1999.90;999.90;;;1.90;99.90;;;;;;5092842;28;20204;-66
2021/01/15 06:30:13;;;;;;;1999.90;999.90;;;1.90;99.90;;;;;;5092434;28;20566;-65
2021/01/15 06:32:39;;;;;;;1999.90;999.90;;;2.00;99.90;;;;;;5092732;28;20229;-66
2021/01/15 06:35:06;;;;;;;1999.90;999.90;;;1.90;99.90;;;;;;5092496;28;20659;-65
2021/01/15 06:37:35;;;;;;;1999.90;999.90;;;2.00;99.90;;;;;;5092573;28;20689;-65
2021/01/15 06:40:06;;;;;;;1999.90;999.90;;;2.00;99.90;;;;;;5092189;28;20182;-65
2021/01/15 06:42:43;;;;;;;1999.90;999.90;;;2.00;99.90;;;;;;5092236;28;20198;-67
2021/01/15 06:45:13;;;;;;;1999.90;999.90;;;2.00;99.90;;;;;;5092417;28;20209;-66
2021/01/15 06:47:44;;;;;;;1999.90;999.90;;;2.00;99.90;;;;;;5092531;28;20289;-66
2021/01/15 06:50:15;;;;;;;1999.90;999.90;;;2.00;99.90;;;;;;5092288;28;20614;-67
2021/01/15 06:52:46;;;;;;;1999.90;999.90;;;2.00;99.90;;;;;;5092342;28;20258;-65
2021/01/15 06:55:15;;;;;;;1999.90;999.90;;;2.00;99.90;;;;;;5092127;28;20194;-65
2021/01/15 06:57:48;;;;;;;1999.90;999.90;;;2.00;99.90;;;;;;5092312;28;20216;-65
2021/01/15 07:00:21;;;;;;;1999.90;999.90;;;2.00;99.90;;;;;;5092098;28;20643;-65
2021/01/15 07:02:49;;;;;;;1999.90;999.90;;;2.00;99.90;;;;;;5092326;28;20178;-66
2021/01/15 07:05:16;;;;;;;1999.90;999.90;;;2.00;99.90;;;;;;5092048;28;20186;-66
2021/01/15 07:07:42;;;;;;;1999.90;999.90;;;1.90;99.90;;;;;;5091721;28;20209;-65
2021/01/15 07:10:08;;;;;;;1999.90;999.90;;;1.90;99.90;;;;;;5091644;28;20175;-65
2021/01/15 07:12:42;;;;;;;1999.90;999.90;;;1.90;99.90;;;;;;5091635;28;20166;-66
2021/01/15 07:15:14;;;;;;;1999.90;999.90;;;2.00;99.90;;;;;;5091465;28;20785;-65
2021/01/15 07:17:46;;;;;;;1999.90;999.90;;;2.00;99.90;;;;;;5091566;28;20194;-65
2021/01/15 07:20:18;;;;;;;1999.90;999.90;;;1.90;99.90;;;;;;5091249;28;20170;-65
2021/01/15 07:22:59;;;;;;;1999.90;999.90;;;1.90;99.90;;;;;;5091488;28;20185;-65
2021/01/15 07:25:25;;;;;;;1999.90;999.90;;;1.90;99.90;;;;;;5091334;28;20181;-65
2021/01/15 07:27:50;;;;;;;1999.90;999.90;;;2.00;99.90;;;;;;5091436;28;20177;-65
2021/01/15 07:30:22;;;;;;;1999.90;999.90;;;1.90;99.90;;;;;;5090762;28;20248;-66
2021/01/15 07:32:52;;;;;;;1999.90;999.90;;;1.90;99.90;;;;;;5091595;28;20538;-65
2021/01/15 07:35:20;;;;;;;1999.90;999.90;;;1.90;99.90;;;;;;5090853;28;20195;-66
2021/01/15 07:37:46;;;;;;;1999.90;999.90;;;2.00;99.90;;;;;;5091291;28;20167;-66
2021/01/15 07:40:16;;;;;;;1999.90;999.90;;;2.00;99.90;;;;;;5091092;28;20173;-64
2021/01/15 07:42:44;;;;;;;1999.90;999.90;;;2.00;99.90;;;;;;5091316;28;20407;-65
2021/01/15 07:45:27;;;;;;;1999.90;999.90;;;1.90;99.90;;;;;;5090926;28;20213;-65
2021/01/15 07:48:14;;;;;;;1999.90;999.90;;;1.90;99.90;;;;;;5091113;28;20178;-66
2021/01/15 07:50:43;;;;;;;1999.90;999.90;;;1.90;99.90;;;;;;5090770;28;20174;-65
2021/01/15 07:53:17;;;;;;;1999.90;999.90;;;1.90;99.90;;;;;;5091034;28;20166;-66
2021/01/15 07:55:58;;;;;;;1999.90;999.90;;;2.00;99.90;;;;;;5090979;28;20193;-66
2021/01/15 07:58:24;;;;;;;1999.90;999.90;;;1.90;99.90;;;;;;5091219;28;20182;-66
2021/01/15 08:00:51;;;;;;;1999.90;999.90;;;2.00;99.90;;;;;;5091040;28;20182;-64
2021/01/15 08:03:17;;;;;;;1999.90;999.90;;;2.00;99.90;;;;;;5091008;28;20174;-66
2021/01/15 08:05:44;;;;;;;1999.90;999.90;;;2.10;99.90;;;;;;5090781;28;20569;-66
2021/01/15 08:08:10;;;;;;;1999.90;999.90;;;2.00;99.90;;;;;;5090775;28;20170;-65
2021/01/15 08:10:56;;;;;;;1999.90;999.90;;;2.00;99.90;;;;;;5090942;28;20167;-66
2021/01/15 08:13:27;;;;;;;1999.90;999.90;;;2.00;99.90;;;;;;5091026;28;20173;-66
2021/01/15 08:15:54;;;;;;;1999.90;999.90;;;2.00;99.90;;;;;;5091150;28;20790;-65
2021/01/15 08:18:20;;;;;;;1999.90;999.90;;;2.10;99.90;;;;;;5090625;28;20695;-66
2021/01/15 08:20:48;;;;;;;1999.90;999.90;;;2.10;99.90;;;;;;5091013;28;20773;-66
2021/01/15 08:23:21;;;;;;;1999.90;999.90;;;2.10;99.90;;;;;;5090859;28;20178;-65
2021/01/15 08:25:48;;;;;;;1999.90;999.90;;;2.20;99.90;;;;;;5090628;28;20202;-66
2021/01/15 08:28:13;;;;;;;1999.90;999.90;;;2.30;99.90;;;;;;5090557;28;20171;-66
2021/01/15 08:30:39;;;;;;;1999.90;999.90;;;2.30;99.90;;;;;;5090853;28;20165;-66
2021/01/15 08:33:05;;;;;;;1999.90;999.90;;;2.20;99.90;;;;;;5090705;28;20170;-64
2021/01/15 08:35:31;;;;;;;1999.90;999.90;;;2.30;99.90;;;;;;5090739;28;20543;-66
2021/01/15 08:37:58;;;;;;;1999.90;999.90;;;2.30;99.90;;;;;;5090648;28;20170;-64
2021/01/15 08:40:28;;;;;;;1999.90;999.90;;;2.30;99.90;;;;;;5090595;28;20240;-65
2021/01/15 08:42:55;;;;;;;1999.90;999.90;;;2.30;99.90;;;;;;5090660;28;20194;-66
2021/01/15 08:45:28;;;;;;;1999.90;999.90;;;2.30;99.90;;;;;;5090354;28;20198;-66
2021/01/15 08:47:56;;;;;;;1999.90;999.90;;;2.30;99.90;;;;;;5092733;28;20537;-66
2021/01/15 08:50:23;;;;;;;1999.90;999.90;;;2.30;99.90;;;;;;5094290;28;20162;-65
2021/01/15 08:52:51;;;;;;;1999.90;999.90;;;2.30;99.90;;;;;;5094414;28;20692;-66
2021/01/15 08:55:18;;;;;;;1999.90;999.90;;;2.30;99.90;;;;;;5094196;28;20197;-66
2021/01/15 08:57:47;;;;;;;1999.90;999.90;;;2.30;99.90;;;;;;5094114;28;20316;-66
2021/01/15 09:00:14;;;;;;;1999.90;999.90;;;2.30;99.90;;;;;;5093952;28;20259;-66
2021/01/15 09:02:41;;;;;;;1999.90;999.90;;;2.40;99.90;;;;;;5094337;28;20546;-66
2021/01/15 09:05:10;;;;;;;1999.90;999.90;;;2.40;99.90;;;;;;5094151;28;20194;-64
2021/01/15 09:07:43;;;;;;;1999.90;999.90;;;2.40;99.90;;;;;;5093903;28;20202;-65
2021/01/15 09:10:13;;;;;;;1999.90;999.90;;;2.40;99.90;;;;;;5093777;28;20253;-65
2021/01/15 09:12:48;;;;;;;1999.90;999.90;;;2.40;99.90;;;;;;5094026;28;20170;-66
2021/01/15 09:15:24;;;;;;;1999.90;999.90;;;2.40;99.90;;;;;;5094000;28;20739;-65
2021/01/15 09:17:51;;;;;;;1999.90;999.90;;;2.40;99.90;;;;;;5094002;28;20211;-66
2021/01/15 09:20:17;;;;;;;1999.90;999.90;;;2.50;99.90;;;;;;5093528;28;20166;-66
2021/01/15 09:22:43;;;;;;;1999.90;999.90;;;2.50;99.90;;;;;;5093855;28;20178;-66
2021/01/15 09:25:10;;;;;;;1999.90;999.90;;;2.50;99.90;;;;;;5093789;28;20179;-66
2021/01/15 09:27:36;;;;;;;1999.90;999.90;;;2.50;99.90;;;;;;5093649;28;20225;-65
2021/01/15 09:30:03;;;;;;;1999.90;999.90;;;2.60;99.90;;;;;;5093516;28;20182;-66
2021/01/15 09:32:28;;;;;;;1999.90;999.90;;;2.60;99.90;;;;;;5093859;28;20510;-65
2021/01/15 09:34:54;;;;;;;1999.90;999.90;;;2.60;99.90;;;;;;5093493;28;20239;-65
2021/01/15 09:37:20;;;;;;;1999.90;999.90;;;2.60;99.90;;;;;;5093547;28;20207;-66
2021/01/15 09:39:45;;;;;;;1999.90;999.90;;;2.60;99.90;;;;;;5093309;28;20253;-65
2021/01/15 09:42:14;;;;;;;1999.90;999.90;;;2.60;99.90;;;;;;5093425;28;20173;-65
2021/01/15 09:44:40;;;;;;;1999.90;999.90;;;2.70;99.90;;;;;;5093141;28;20702;-65
2021/01/15 09:47:06;;;;;;;1999.90;999.90;;;2.70;99.90;;;;;;5093288;28;20202;-66
2021/01/15 09:49:32;;;;;;;1999.90;999.90;;;2.70;99.90;;;;;;5092930;28;20167;-65
2021/01/15 09:51:58;;;;;;;1999.90;999.90;;;2.60;99.90;;;;;;5093129;28;20312;-64
2021/01/15 09:54:23;;;;;;;1999.90;999.90;;;2.60;99.90;;;;;;5093044;28;20424;-65
2021/01/15 09:56:49;;;;;;;1999.90;999.90;;;2.60;99.90;;;;;;5093164;28;20167;-65
2021/01/15 09:59:18;;;;;;;1999.90;999.90;;;2.60;99.90;;;;;;5092377;28;20527;-66
2021/01/15 10:01:47;;;;;;;1999.90;999.90;;;2.60;99.90;;;;;;5093023;28;20533;-65
2021/01/15 10:04:14;;;;;;;1999.90;999.90;;;2.60;99.90;;;;;;5092907;28;20562;-65
2021/01/15 10:06:41;;;;;;;1999.90;999.90;;;2.60;99.90;;;;;;5092798;28;20197;-65
2021/01/15 10:09:09;;;;;;;1999.90;999.90;;;2.60;99.90;;;;;;5092597;28;20170;-65
2021/01/15 10:11:39;;;;;;;1999.90;999.90;;;2.60;99.90;;;;;;5092781;28;20162;-66
2021/01/15 10:14:09;;;;;;;1999.90;999.90;;;2.70;99.90;;;;;;5092761;28;20224;-65
2021/01/15 10:16:39;;;;;;;1999.90;999.90;;;2.80;99.90;;;;;;5092677;28;20167;-65
2021/01/15 10:19:05;;;;;;;1999.90;999.90;;;2.90;99.90;;;;;;5092262;28;20232;-65
2021/01/15 10:21:32;;;;;;;1999.90;999.90;;;2.90;99.90;;;;;;5092580;28;20678;-66
2021/01/15 10:24:01;;;;;;;1999.90;999.90;;;3.00;99.90;;;;;;5092586;28;20197;-64
2021/01/15 10:26:32;;;;;;;1999.90;999.90;;;3.00;99.90;;;;;;5092467;28;20198;-65
2021/01/15 10:29:03;;;;;;;1999.90;999.90;;;3.10;99.90;;;;;;5092218;28;20243;-65
2021/01/15 10:31:32;;;;;;;1999.90;999.90;;;3.00;99.90;;;;;;5092438;28;20166;-65
2021/01/15 10:34:00;;;;;;;1999.90;999.90;;;3.00;99.90;;;;;;5092175;28;20188;-65
2021/01/15 10:36:26;;;;;;;1999.90;999.90;;;3.10;99.90;;;;;;5092214;28;20174;-64
2021/01/15 10:38:52;;;;;;;1999.90;999.90;;;3.10;99.90;;;;;;5092055;28;20209;-64
2021/01/15 10:41:39;;;;;;;1999.90;999.90;;;3.00;99.90;;;;;;5092275;28;20189;-65
2021/01/15 10:44:07;;;;;;;1999.90;999.90;;;3.00;99.90;;;;;;5107343;22;20440;-64
2021/01/15 10:46:38;;;;;;;1999.90;999.90;;;3.10;99.90;;;;;;5090979;28;20210;-64
2021/01/15 10:49:08;;;;;;;1999.90;999.90;;;3.10;99.90;;;;;;5088869;28;20196;-65
2021/01/15 10:51:34;;;;;;;1999.90;999.90;;;3.20;99.90;;;;;;5086780;28;20602;-63
2021/01/15 10:54:00;;;;;;;1999.90;999.90;;;3.20;99.90;;;;;;5090252;28;20253;-62
2021/01/15 10:56:36;;;;;;;1999.90;999.90;;;3.30;99.90;;;;;;5091054;28;20447;-61
2021/01/15 10:59:03;;;;;;;1999.90;999.90;;;3.40;99.90;;;;;;5089830;28;20402;-61
2021/01/15 11:01:42;;;;;;;1999.90;999.90;;;3.50;99.90;;;;;;5069174;28;20543;-62
2021/01/15 11:04:09;;;;;;;1999.90;999.90;;;3.60;99.90;;;;;;5050511;28;20160;-62
2021/01/15 11:06:36;;;;;;;1999.90;999.90;;;3.60;99.90;;;;;;5050161;28;20188;-62
2021/01/15 11:09:03;;;;;;;1999.90;999.90;;;3.60;99.90;;;;;;5050054;28;20182;-61
2021/01/15 11:11:28;;;;;;;1999.90;999.90;;;3.60;99.90;;;;;;5050118;28;20250;-65
2021/01/15 11:13:54;;;;;;;1999.90;999.90;;;3.60;99.90;;;;;;5050125;28;20188;-65
2021/01/15 11:16:20;;;;;;;1999.90;999.90;;;3.60;99.90;;;;;;5051193;28;20242;-62
2021/01/15 11:18:45;;;;;;;1999.90;999.90;;;3.50;99.90;;;;;;5050727;28;20175;-65
2021/01/15 11:21:11;;;;;;;1999.90;999.90;;;3.40;99.90;;;;;;5050558;28;20629;-62
2021/01/15 11:23:37;;;;;;;1999.90;999.90;;;3.50;99.90;;;;;;5050777;28;20163;-64
2021/01/15 11:26:03;;;;;;;1999.90;999.90;;;3.50;99.90;;;;;;5050879;28;20203;-63
2021/01/15 11:28:29;;;;;;;1999.90;999.90;;;3.60;99.90;;;;;;5050427;28;20402;-65
2021/01/15 11:30:54;;;;;;;1999.90;999.90;;;3.40;99.90;;;;;;5050721;28;20178;-64
2021/01/15 11:33:20;;;;;;;1999.90;999.90;;;3.40;99.90;;;;;;5050616;28;20648;-63
2021/01/15 11:35:46;;;;;;;1999.90;999.90;;;3.40;99.90;;;;;;5051033;28;20274;-65
2021/01/15 11:38:12;;;;;;;1999.90;999.90;;;3.30;99.90;;;;;;5050529;28;20403;-63
2021/01/15 11:40:38;;;;;;;1999.90;999.90;;;3.40;99.90;;;;;;5050613;28;20175;-65
2021/01/15 11:43:03;;;;;;;1999.90;999.90;;;3.50;99.90;;;;;;5050477;28;20210;-65
2021/01/15 11:45:29;;;;;;;1999.90;999.90;;;3.50;99.90;;;;;;5050744;28;20199;-64
2021/01/15 11:47:56;;;;;;;1999.90;999.90;;;3.60;99.90;;;;;;5050734;28;20585;-64
2021/01/15 11:50:24;;;;;;;1999.90;999.90;;;3.60;99.90;;;;;;5050122;28;20186;-62
2021/01/15 11:52:56;;;;;;;1999.90;999.90;;;3.60;99.90;;;;;;5050784;28;20171;-64
2021/01/15 11:55:23;;;;;;;1999.90;999.90;;;3.80;99.90;;;;;;5050785;28;20242;-63
2021/01/15 11:57:50;;;;;;;1999.90;999.90;;;3.80;99.90;;;;;;5050453;28;20168;-64
2021/01/15 12:00:16;;;;;;;1999.90;999.90;;;3.70;99.90;;;;;;5050575;28;20182;-62
2021/01/15 12:02:42;;;;;;;1999.90;999.90;;;3.60;99.90;;;;;;5050807;28;20709;-63
2021/01/15 12:05:08;;;;;;;1999.90;999.90;;;3.50;99.90;;;;;;5050240;28;20195;-63
2021/01/15 12:07:34;;;;;;;1999.90;999.90;;;3.40;99.90;;;;;;5050404;28;20187;-64
2021/01/15 12:09:59;;;;;;;1999.90;999.90;;;3.40;99.90;;;;;;5050143;28;20657;-63
2021/01/15 12:12:25;;;;;;;1999.90;999.90;;;3.40;99.90;;;;;;5049863;28;20171;-63
2021/01/15 12:14:50;;;;;;;1999.90;999.90;;;3.50;99.90;;;;;;5050475;28;20194;-65
2021/01/15 12:17:16;;;;;;;1999.90;999.90;;;3.50;99.90;;;;;;5050699;28;20298;-62